Time;durP1;ratioP1;P1;durP2;ratioP2;P2;SDS_P1;SDS_P2;PMS_P1;PMS_P2;Temp;Humidity;BMP_temperature;BMP_pressure;BME280_temperature;BME280_humidity;BME280_pressure;Samples;Min_cycle;Max_cycle;Signal;HPM_P1;HPM_P2
2020/12/16 00:00:12;;;;;;;14.98;9.60;;;6.30;81.10;;;;;;4991499;28;20034;-65
2020/12/16 00:02:38;;;;;;;14.15;9.60;;;6.30;80.90;;;;;;4989514;28;20039;-67
2020/12/16 00:05:06;;;;;;;14.18;10.15;;;6.30;80.90;;;;;;4991710;28;20402;-67
2020/12/16 00:07:31;;;;;;;18.05;10.60;;;6.30;81.00;;;;;;4984548;28;20042;-67
2020/12/16 00:09:57;;;;;;;17.85;10.93;;;6.20;81.00;;;;;;4980145;28;20037;-67
2020/12/16 00:12:23;;;;;;;18.05;11.50;;;6.30;81.10;;;;;;4981929;28;20422;-67
2020/12/16 00:14:48;;;;;;;20.38;11.65;;;6.20;80.90;;;;;;4991106;28;20030;-67
2020/12/16 00:17:14;;;;;;;17.17;11.38;;;6.20;80.90;;;;;;4990967;28;20045;-67
2020/12/16 00:19:41;;;;;;;19.85;11.57;;;6.20;80.90;;;;;;4989979;28;20058;-67
2020/12/16 00:22:07;;;;;;;36.28;13.75;;;6.20;81.00;;;;;;4988724;28;20071;-67
2020/12/16 00:24:32;;;;;;;29.45;13.98;;;6.20;81.00;;;;;;4989038;28;20556;-66
2020/12/16 00:26:58;;;;;;;24.85;13.07;;;6.20;81.00;;;;;;4987241;28;20133;-67
2020/12/16 00:29:24;;;;;;;24.17;12.68;;;6.30;81.20;;;;;;4988353;28;20422;-68
2020/12/16 00:31:49;;;;;;;37.92;11.73;;;6.20;81.20;;;;;;4984842;28;20038;-66
2020/12/16 00:34:15;;;;;;;47.97;10.88;;;6.20;81.30;;;;;;4990279;28;20097;-67
2020/12/16 00:36:41;;;;;;;29.38;10.00;;;6.20;81.30;;;;;;4987650;28;20035;-68
2020/12/16 00:39:09;;;;;;;47.30;10.65;;;6.20;81.40;;;;;;4982543;28;20034;-67
2020/12/16 00:41:35;;;;;;;16.80;9.35;;;6.20;81.50;;;;;;4989449;28;20080;-67
2020/12/16 00:44:02;;;;;;;14.45;9.48;;;6.10;81.40;;;;;;4988465;28;20030;-67
2020/12/16 00:46:28;;;;;;;86.40;10.68;;;6.10;81.80;;;;;;4990551;28;20089;-66
2020/12/16 00:48:54;;;;;;;46.08;9.45;;;6.10;82.00;;;;;;4982878;28;20039;-67
2020/12/16 00:51:19;;;;;;;14.25;8.77;;;6.10;82.10;;;;;;4985342;28;20138;-68
2020/12/16 00:53:45;;;;;;;12.98;9.32;;;6.10;82.20;;;;;;4989744;28;20450;-68
2020/12/16 00:56:11;;;;;;;13.38;9.30;;;6.10;82.50;;;;;;4992156;28;20039;-67
2020/12/16 00:58:36;;;;;;;14.27;9.32;;;6.10;82.50;;;;;;4988903;28;20038;-66
2020/12/16 01:01:04;;;;;;;14.88;9.35;;;6.10;82.40;;;;;;4987067;28;20571;-67
2020/12/16 01:03:30;;;;;;;49.17;9.32;;;6.10;82.40;;;;;;4985428;28;20038;-66
2020/12/16 01:05:55;;;;;;;29.85;9.40;;;6.10;82.40;;;;;;4985143;28;20387;-67
2020/12/16 01:08:21;;;;;;;40.28;9.85;;;6.20;82.50;;;;;;4982876;28;20640;-68
2020/12/16 01:10:47;;;;;;;72.30;11.15;;;6.20;82.50;;;;;;4983310;28;20070;-67
2020/12/16 01:13:13;;;;;;;31.80;10.70;;;6.20;82.50;;;;;;4993518;28;20438;-67
2020/12/16 01:15:39;;;;;;;15.80;9.20;;;6.20;82.60;;;;;;4989139;28;20053;-68
2020/12/16 01:18:04;;;;;;;15.07;9.10;;;6.20;83.50;;;;;;4988027;28;20058;-66
2020/12/16 01:20:30;;;;;;;11.52;8.35;;;6.20;82.80;;;;;;4988678;28;20027;-67
2020/12/16 01:22:56;;;;;;;21.92;9.57;;;6.20;82.80;;;;;;4984765;28;20126;-67
2020/12/16 01:25:22;;;;;;;22.27;10.30;;;6.20;82.90;;;;;;4989702;28;20568;-65
2020/12/16 01:27:55;;;;;;;26.23;9.85;;;6.20;82.90;;;;;;4986720;28;20565;-67
2020/12/16 01:30:21;;;;;;;42.05;10.88;;;6.20;83.00;;;;;;4987935;28;20045;-67
2020/12/16 01:32:50;;;;;;;28.27;11.07;;;6.20;83.00;;;;;;4986051;28;20030;-67
2020/12/16 01:35:15;;;;;;;43.30;11.52;;;6.30;83.10;;;;;;4982926;28;20031;-66
2020/12/16 01:37:41;;;;;;;21.67;10.38;;;6.30;83.00;;;;;;4987267;28;20096;-67
2020/12/16 01:40:08;;;;;;;40.65;10.88;;;6.30;83.10;;;;;;4986562;28;20073;-67
2020/12/16 01:42:35;;;;;;;18.83;9.68;;;6.30;83.20;;;;;;4989127;28;20038;-67
2020/12/16 01:45:08;;;;;;;24.13;10.75;;;6.30;83.10;;;;;;4984138;28;20034;-66
2020/12/16 01:47:34;;;;;;;24.75;10.90;;;6.30;83.20;;;;;;4988050;28;20038;-67
2020/12/16 01:50:00;;;;;;;33.03;11.98;;;6.40;83.20;;;;;;4984267;28;20069;-67
2020/12/16 01:52:27;;;;;;;40.65;10.48;;;6.30;83.00;;;;;;4983611;28;20066;-66
2020/12/16 01:54:54;;;;;;;45.67;11.63;;;6.40;83.00;;;;;;4986427;28;20128;-67
2020/12/16 01:57:23;;;;;;;42.97;12.07;;;6.40;83.00;;;;;;4989584;28;20038;-66
2020/12/16 01:59:50;;;;;;;44.13;13.10;;;6.40;83.00;;;;;;4980975;28;20077;-67
2020/12/16 02:02:18;;;;;;;70.20;14.25;;;6.30;82.80;;;;;;4983054;28;20670;-66
2020/12/16 02:04:46;;;;;;;65.40;13.90;;;6.30;82.90;;;;;;4985156;28;20141;-67
2020/12/16 02:07:12;;;;;;;36.78;11.88;;;6.30;83.90;;;;;;4982387;28;20031;-66
2020/12/16 02:09:41;;;;;;;38.80;12.27;;;6.30;83.20;;;;;;4984730;28;20395;-67
2020/12/16 02:12:23;;;;;;;80.88;13.40;;;6.20;83.30;;;;;;4985532;28;20035;-67
2020/12/16 02:14:49;;;;;;;59.03;11.93;;;6.20;83.50;;;;;;4985469;28;20081;-67
2020/12/16 02:17:15;;;;;;;49.67;12.15;;;6.20;83.40;;;;;;4988037;28;20038;-67
2020/12/16 02:19:55;;;;;;;44.22;11.93;;;6.20;83.50;;;;;;4985194;28;20073;-67
2020/12/16 02:22:21;;;;;;;31.23;10.88;;;6.20;83.60;;;;;;4983307;28;20043;-67
2020/12/16 02:25:11;;;;;;;34.65;11.02;;;6.20;83.50;;;;;;4987484;28;20037;-67
2020/12/16 02:27:38;;;;;;;27.88;13.02;;;6.20;83.90;;;;;;4985000;28;20038;-67
2020/12/16 02:30:05;;;;;;;34.53;12.77;;;6.20;83.70;;;;;;4987220;28;20040;-67
2020/12/16 02:32:31;;;;;;;34.47;12.10;;;6.20;83.80;;;;;;4999817;28;20572;-67
2020/12/16 02:34:57;;;;;;;62.90;12.05;;;6.30;83.90;;;;;;4984370;28;20034;-67
2020/12/16 02:37:24;;;;;;;38.45;11.38;;;6.30;83.90;;;;;;4988449;28;20034;-67
2020/12/16 02:39:50;;;;;;;45.80;12.05;;;6.20;83.90;;;;;;4983427;28;20037;-67
2020/12/16 02:42:37;;;;;;;64.63;13.27;;;6.30;83.90;;;;;;4987781;28;20034;-67
2020/12/16 02:45:03;;;;;;;58.08;12.20;;;6.30;83.90;;;;;;4984372;28;20424;-66
2020/12/16 02:47:29;;;;;;;66.15;12.90;;;6.30;83.70;;;;;;4983878;28;20046;-67
2020/12/16 02:49:54;;;;;;;69.47;12.77;;;6.30;83.70;;;;;;4985986;28;20502;-67
2020/12/16 02:52:20;;;;;;;72.78;12.40;;;6.30;83.60;;;;;;4986729;28;20053;-66
2020/12/16 02:54:46;;;;;;;46.80;13.02;;;6.30;83.60;;;;;;4984424;28;20038;-66
2020/12/16 02:57:12;;;;;;;33.10;12.48;;;6.30;83.60;;;;;;4985270;28;20065;-67
2020/12/16 02:59:38;;;;;;;33.13;11.25;;;6.30;83.80;;;;;;4986481;28;20030;-67
2020/12/16 03:02:03;;;;;;;56.53;11.40;;;6.30;84.80;;;;;;4986006;28;20516;-67
2020/12/16 03:04:29;;;;;;;36.10;12.23;;;6.30;84.00;;;;;;4985140;28;20039;-67
2020/12/16 03:06:56;;;;;;;71.50;13.85;;;6.30;84.10;;;;;;4985742;28;20413;-67
2020/12/16 03:09:25;;;;;;;42.72;12.18;;;6.40;84.20;;;;;;4985604;28;20613;-67
2020/12/16 03:11:55;;;;;;;73.30;12.48;;;6.30;84.10;;;;;;4984709;28;20117;-67
2020/12/16 03:14:22;;;;;;;23.17;11.35;;;6.40;84.20;;;;;;4985159;28;20038;-67
2020/12/16 03:16:48;;;;;;;82.50;13.07;;;6.40;84.10;;;;;;4985362;28;20035;-67
2020/12/16 03:19:14;;;;;;;21.23;11.60;;;6.40;84.10;;;;;;4984336;28;20050;-67
2020/12/16 03:21:39;;;;;;;25.15;12.35;;;6.40;84.10;;;;;;4989541;28;20061;-66
2020/12/16 03:24:05;;;;;;;31.33;12.63;;;6.40;84.20;;;;;;4986607;28;20026;-67
2020/12/16 03:26:30;;;;;;;101.72;13.45;;;6.40;84.20;;;;;;4990161;28;20648;-67
2020/12/16 03:28:56;;;;;;;53.83;12.80;;;6.50;84.20;;;;;;4988715;28;21787;-67
2020/12/16 03:31:22;;;;;;;86.97;14.07;;;6.50;84.20;;;;;;4988179;28;20548;-66
2020/12/16 03:33:48;;;;;;;96.88;14.82;;;6.50;84.00;;;;;;4990181;28;20114;-66
2020/12/16 03:36:16;;;;;;;77.25;13.27;;;6.50;84.00;;;;;;4982933;28;20696;-67
2020/12/16 03:38:42;;;;;;;83.40;13.80;;;6.50;83.90;;;;;;4984505;28;20109;-67
2020/12/16 03:41:08;;;;;;;97.30;13.93;;;6.40;83.90;;;;;;4988813;28;20070;-67
2020/12/16 03:43:34;;;;;;;112.00;14.35;;;6.40;83.90;;;;;;4989258;28;20525;-67
2020/12/16 03:46:00;;;;;;;81.15;13.93;;;6.30;84.00;;;;;;4987894;28;20035;-67
2020/12/16 03:48:25;;;;;;;70.40;13.35;;;6.30;84.00;;;;;;4987256;28;20030;-67
2020/12/16 03:50:51;;;;;;;69.85;13.73;;;6.30;84.20;;;;;;4988460;28;20034;-67
2020/12/16 03:53:17;;;;;;;103.60;13.65;;;6.30;84.30;;;;;;4988145;28;20121;-68
2020/12/16 03:55:42;;;;;;;81.18;13.75;;;6.20;84.30;;;;;;4986979;28;20461;-67
2020/12/16 03:58:08;;;;;;;100.15;14.82;;;6.30;84.40;;;;;;4990325;28;20097;-67
2020/12/16 04:00:34;;;;;;;128.70;14.30;;;6.30;84.40;;;;;;4987696;28;20113;-66
2020/12/16 04:02:59;;;;;;;76.28;13.35;;;6.30;84.50;;;;;;4986254;28;20498;-67
2020/12/16 04:05:25;;;;;;;66.22;12.45;;;6.20;84.40;;;;;;4988844;28;20545;-68
2020/12/16 04:07:50;;;;;;;51.33;12.15;;;6.20;84.50;;;;;;4988129;28;20108;-67
2020/12/16 04:10:16;;;;;;;52.60;13.60;;;6.20;84.70;;;;;;4988052;28;20081;-67
2020/12/16 04:12:42;;;;;;;54.40;11.82;;;6.20;84.70;;;;;;4988968;28;20536;-68
2020/12/16 04:15:08;;;;;;;86.63;12.75;;;6.30;84.90;;;;;;4989584;28;20034;-67
2020/12/16 04:17:34;;;;;;;65.25;13.10;;;6.30;84.90;;;;;;4989282;28;20035;-67
2020/12/16 04:20:00;;;;;;;61.80;12.48;;;6.30;84.80;;;;;;4986567;28;20140;-65
2020/12/16 04:22:28;;;;;;;60.67;11.90;;;6.30;84.70;;;;;;4983603;28;20431;-67
2020/12/16 04:24:55;;;;;;;82.57;12.88;;;6.30;84.80;;;;;;4989067;28;20042;-67
2020/12/16 04:27:20;;;;;;;92.95;17.77;;;6.30;84.70;;;;;;4988468;28;20449;-67
2020/12/16 04:29:46;;;;;;;101.93;20.08;;;6.30;84.70;;;;;;4987826;28;20089;-67
2020/12/16 04:32:14;;;;;;;117.40;19.08;;;6.30;84.70;;;;;;4987979;28;20089;-67
2020/12/16 04:34:40;;;;;;;104.28;15.23;;;6.30;84.80;;;;;;4986186;28;20573;-67
2020/12/16 04:37:05;;;;;;;53.00;14.05;;;6.30;84.70;;;;;;4987693;28;20461;-64
2020/12/16 04:39:31;;;;;;;65.55;14.07;;;6.30;84.90;;;;;;4985603;28;20042;-67
2020/12/16 04:41:57;;;;;;;30.80;11.75;;;6.30;84.90;;;;;;4986935;28;20109;-68
2020/12/16 04:44:23;;;;;;;42.38;12.32;;;6.30;84.80;;;;;;4988999;28;20512;-67
2020/12/16 04:46:49;;;;;;;62.90;13.45;;;6.40;84.90;;;;;;4989018;28;20031;-68
2020/12/16 04:49:15;;;;;;;55.95;12.57;;;6.40;84.90;;;;;;4990475;28;20034;-67
2020/12/16 04:51:43;;;;;;;26.85;11.90;;;6.40;84.70;;;;;;4986651;28;20093;-67
2020/12/16 04:54:09;;;;;;;36.80;12.40;;;6.40;84.70;;;;;;4984045;28;20042;-67
2020/12/16 04:56:36;;;;;;;76.97;13.55;;;6.40;84.70;;;;;;4987662;28;20034;-68
2020/12/16 04:59:05;;;;;;;43.08;12.23;;;6.50;84.80;;;;;;4984175;28;20054;-67
2020/12/16 05:01:32;;;;;;;62.50;12.73;;;6.50;84.70;;;;;;4984814;28;20035;-67
2020/12/16 05:03:57;;;;;;;46.45;12.43;;;6.50;84.70;;;;;;4987024;28;20093;-67
2020/12/16 05:06:49;;;;;;;51.33;12.15;;;6.40;84.60;;;;;;4989552;28;20046;-67
2020/12/16 05:09:16;;;;;;;45.67;12.65;;;6.50;84.70;;;;;;4985284;28;20058;-67
2020/12/16 05:11:47;;;;;;;61.50;12.27;;;6.50;84.60;;;;;;4983936;28;20046;-67
2020/12/16 05:14:22;;;;;;;28.30;12.07;;;6.50;84.50;;;;;;4990573;28;20620;-67
2020/12/16 05:16:51;;;;;;;34.80;13.63;;;6.50;84.60;;;;;;4987646;28;20042;-67
2020/12/16 05:19:30;;;;;;;44.03;11.75;;;6.50;84.60;;;;;;4970103;28;20080;-67
2020/12/16 05:22:12;;;;;;;52.25;12.27;;;6.50;84.70;;;;;;4988682;28;20121;-67
2020/12/16 05:24:38;;;;;;;92.65;13.20;;;6.50;84.70;;;;;;4987304;28;20038;-67
2020/12/16 05:27:04;;;;;;;44.03;11.75;;;6.50;84.50;;;;;;4985819;28;20038;-67
2020/12/16 05:29:29;;;;;;;43.67;12.18;;;6.50;84.40;;;;;;4990496;28;20499;-67
2020/12/16 05:31:55;;;;;;;48.10;12.07;;;6.50;84.50;;;;;;4989695;28;20030;-67
2020/12/16 05:34:30;;;;;;;33.95;12.20;;;6.40;84.40;;;;;;4988005;28;20125;-67
2020/12/16 05:36:55;;;;;;;71.32;14.88;;;6.40;84.60;;;;;;4981958;28;20027;-67
2020/12/16 05:39:21;;;;;;;67.72;14.90;;;6.40;84.40;;;;;;4983905;28;20030;-67
2020/12/16 05:41:56;;;;;;;63.47;12.55;;;6.40;84.60;;;;;;4987006;28;20049;-68
2020/12/16 05:44:24;;;;;;;43.97;13.02;;;6.40;84.80;;;;;;4984410;28;20035;-67
2020/12/16 05:46:51;;;;;;;62.58;13.25;;;6.30;84.70;;;;;;4986135;28;20034;-67
2020/12/16 05:49:24;;;;;;;44.10;12.68;;;6.30;84.70;;;;;;4986583;28;20062;-67
2020/12/16 05:51:57;;;;;;;57.83;12.60;;;6.30;84.90;;;;;;4986502;28;20078;-67
2020/12/16 05:54:23;;;;;;;52.47;12.68;;;6.30;85.10;;;;;;4987424;28;20618;-67
2020/12/16 05:57:21;;;;;;;41.50;12.65;;;6.20;84.90;;;;;;4983461;28;20134;-67
2020/12/16 06:00:10;;;;;;;58.53;12.55;;;6.30;85.30;;;;;;4987791;28;20049;-67
2020/12/16 06:02:39;;;;;;;47.63;11.93;;;6.30;85.30;;;;;;4983606;28;20491;-67
2020/12/16 06:05:10;;;;;;;42.22;12.48;;;6.30;84.90;;;;;;4982917;28;20893;-67
2020/12/16 06:07:41;;;;;;;64.10;12.30;;;6.30;85.00;;;;;;4983224;28;20116;-67
2020/12/16 06:10:08;;;;;;;69.95;15.00;;;6.30;85.00;;;;;;4988747;28;20057;-66
2020/12/16 06:12:38;;;;;;;88.65;15.10;;;6.40;85.10;;;;;;4984419;28;20045;-67
2020/12/16 06:15:14;;;;;;;31.88;14.25;;;6.40;85.10;;;;;;4986491;28;20110;-67
2020/12/16 06:17:47;;;;;;;32.40;14.48;;;6.40;85.10;;;;;;4980216;28;20045;-67
2020/12/16 06:20:15;;;;;;;24.55;13.93;;;6.40;85.10;;;;;;4985478;28;20026;-67
2020/12/16 06:22:43;;;;;;;37.45;11.98;;;6.50;85.20;;;;;;4998016;28;20147;-67
2020/12/16 06:25:11;;;;;;;19.95;11.80;;;6.50;85.20;;;;;;4986962;28;20057;-67
2020/12/16 06:27:42;;;;;;;26.13;11.80;;;6.50;85.10;;;;;;4985894;28;20038;-67
2020/12/16 06:30:29;;;;;;;20.17;11.18;;;6.60;85.20;;;;;;4988840;28;20026;-68
2020/12/16 06:33:14;;;;;;;27.48;11.30;;;6.60;85.10;;;;;;4979315;28;20089;-68
2020/12/16 06:35:41;;;;;;;41.97;12.10;;;6.60;85.00;;;;;;4986353;28;20405;-68
2020/12/16 06:38:19;;;;;;;44.95;12.07;;;6.60;84.80;;;;;;4985311;28;20113;-67
2020/12/16 06:40:56;;;;;;;24.48;12.90;;;6.70;84.80;;;;;;4966284;28;20154;-67
2020/12/16 06:43:31;;;;;;;32.53;14.50;;;6.70;84.60;;;;;;4977453;28;20498;-67
2020/12/16 06:46:02;;;;;;;62.63;14.82;;;6.70;84.60;;;;;;4983030;28;20026;-67
2020/12/16 06:48:36;;;;;;;29.92;12.77;;;6.70;84.50;;;;;;4983358;28;20042;-67
2020/12/16 06:51:15;;;;;;;24.60;12.52;;;6.80;84.50;;;;;;4982753;28;20374;-67
2020/12/16 06:53:41;;;;;;;35.65;13.65;;;6.70;84.50;;;;;;4986149;28;20034;-67
2020/12/16 06:56:07;;;;;;;26.27;13.68;;;6.80;84.30;;;;;;4981878;28;20422;-67
2020/12/16 06:58:39;;;;;;;34.60;14.40;;;6.80;84.40;;;;;;4987039;28;20038;-67
2020/12/16 07:01:12;;;;;;;39.95;13.80;;;6.80;84.50;;;;;;4987847;28;20560;-68
2020/12/16 07:03:38;;;;;;;43.65;16.45;;;6.80;84.40;;;;;;4982989;28;20027;-67
2020/12/16 07:06:04;;;;;;;42.53;15.68;;;6.80;84.30;;;;;;4982294;28;20030;-67
2020/12/16 07:08:29;;;;;;;51.88;15.88;;;6.80;84.30;;;;;;4987499;28;20066;-67
2020/12/16 07:10:55;;;;;;;44.35;15.35;;;6.80;84.40;;;;;;4980251;28;20042;-67
2020/12/16 07:13:37;;;;;;;44.45;15.20;;;6.80;84.30;;;;;;4983659;28;20539;-67
2020/12/16 07:16:12;;;;;;;28.25;14.15;;;6.80;84.40;;;;;;4982142;28;20078;-67
2020/12/16 07:18:42;;;;;;;34.63;16.27;;;6.80;84.50;;;;;;4979007;28;20045;-67
2020/12/16 07:21:08;;;;;;;35.60;16.73;;;6.80;85.30;;;;;;4995788;28;20042;-67
2020/12/16 07:23:58;;;;;;;35.65;16.52;;;6.80;84.40;;;;;;4981784;28;20494;-67
2020/12/16 07:26:25;;;;;;;35.38;17.02;;;6.80;84.40;;;;;;4984426;28;20034;-67
2020/12/16 07:28:50;;;;;;;60.50;17.60;;;6.80;84.30;;;;;;4976090;28;20061;-66
2020/12/16 07:31:16;;;;;;;37.15;17.38;;;6.70;84.30;;;;;;4981823;28;20541;-66
2020/12/16 07:33:43;;;;;;;52.00;15.90;;;6.80;84.40;;;;;;4982597;28;20038;-67
2020/12/16 07:36:09;;;;;;;40.20;15.23;;;6.80;84.50;;;;;;4988747;28;20027;-68
2020/12/16 07:38:36;;;;;;;29.52;15.95;;;6.70;84.50;;;;;;4982181;28;20404;-68
2020/12/16 07:41:02;;;;;;;28.50;14.77;;;6.70;84.60;;;;;;4989459;28;20117;-67
2020/12/16 07:43:28;;;;;;;44.92;15.45;;;6.70;84.60;;;;;;4983557;28;20038;-67
2020/12/16 07:46:05;;;;;;;53.88;15.68;;;6.80;84.80;;;;;;4988476;28;20101;-67
2020/12/16 07:48:31;;;;;;;69.97;17.23;;;6.70;84.70;;;;;;4989424;28;20047;-67
2020/12/16 07:51:06;;;;;;;28.45;14.68;;;6.80;84.70;;;;;;4993208;28;20401;-67
2020/12/16 07:53:33;;;;;;;32.03;15.85;;;6.80;84.90;;;;;;4991241;28;20070;-66
2020/12/16 07:56:03;;;;;;;45.80;15.23;;;6.70;84.90;;;;;;4989822;28;20034;-67
2020/12/16 07:58:32;;;;;;;25.98;14.55;;;6.80;85.10;;;;;;4989071;28;20677;-67
2020/12/16 08:01:18;;;;;;;39.67;16.02;;;6.80;85.10;;;;;;4985259;28;20042;-68
2020/12/16 08:03:45;;;;;;;25.95;14.95;;;6.70;85.10;;;;;;4979955;28;20528;-68
2020/12/16 08:06:11;;;;;;;26.27;14.63;;;6.80;85.00;;;;;;4981029;28;20030;-68
2020/12/16 08:08:51;;;;;;;29.83;15.77;;;6.80;85.10;;;;;;4986020;28;20040;-68
2020/12/16 08:11:21;;;;;;;30.15;16.48;;;6.90;85.20;;;;;;4983331;28;20065;-68
2020/12/16 08:13:48;;;;;;;31.45;17.23;;;6.90;85.20;;;;;;4983077;28;20414;-67
2020/12/16 08:16:15;;;;;;;22.45;13.60;;;6.90;85.20;;;;;;4989641;28;20053;-67
2020/12/16 08:18:45;;;;;;;25.92;14.82;;;7.00;85.20;;;;;;4989643;28;20046;-67
2020/12/16 08:21:22;;;;;;;23.00;13.98;;;7.00;85.20;;;;;;4991004;28;20038;-68
2020/12/16 08:23:52;;;;;;;26.15;14.55;;;7.00;85.10;;;;;;4988060;28;20043;-68
2020/12/16 08:26:19;;;;;;;25.70;14.68;;;7.10;85.10;;;;;;4987651;28;20501;-68
2020/12/16 08:28:45;;;;;;;24.90;14.63;;;7.20;85.10;;;;;;4993621;28;20069;-67
2020/12/16 08:31:12;;;;;;;25.23;14.80;;;7.20;85.80;;;;;;4992237;28;20089;-67
2020/12/16 08:33:38;;;;;;;25.50;15.65;;;7.20;84.80;;;;;;4990051;28;20080;-68
2020/12/16 08:36:05;;;;;;;27.88;16.02;;;7.30;84.80;;;;;;4992302;28;20402;-67
2020/12/16 08:38:35;;;;;;;23.92;14.90;;;7.30;84.60;;;;;;4994334;28;20061;-67
2020/12/16 08:41:01;;;;;;;26.50;15.73;;;7.30;84.60;;;;;;4988165;28;20447;-68
2020/12/16 08:43:30;;;;;;;23.60;14.52;;;7.30;84.60;;;;;;4984485;28;20034;-67
2020/12/16 08:46:09;;;;;;;24.17;14.63;;;7.30;84.60;;;;;;4988759;28;20754;-67
2020/12/16 08:49:01;;;;;;;25.23;15.18;;;7.40;84.80;;;;;;4986349;28;20069;-67
2020/12/16 08:51:38;;;;;;;24.13;15.20;;;7.40;84.90;;;;;;4993238;28;20041;-67
2020/12/16 08:54:08;;;;;;;25.13;15.90;;;7.40;84.70;;;;;;4983367;28;20078;-67
2020/12/16 08:56:43;;;;;;;27.63;16.63;;;7.40;84.50;;;;;;4994745;28;20085;-67
2020/12/16 08:59:17;;;;;;;28.33;16.35;;;7.40;84.50;;;;;;4994436;28;20141;-67
2020/12/16 09:01:45;;;;;;;29.40;15.88;;;7.40;84.50;;;;;;4987436;28;20035;-68
2020/12/16 09:04:21;;;;;;;27.17;15.43;;;7.40;84.30;;;;;;4989515;28;20034;-67
2020/12/16 09:07:23;;;;;;;24.67;14.23;;;7.40;84.30;;;;;;4994709;28;20114;-67
2020/12/16 09:09:49;;;;;;;28.25;15.18;;;7.50;84.50;;;;;;4979290;28;20033;-68
2020/12/16 09:12:17;;;;;;;27.70;15.75;;;7.50;84.50;;;;;;4984854;28;20031;-67
2020/12/16 09:14:51;;;;;;;28.83;16.15;;;7.50;84.60;;;;;;4981056;28;20405;-68
2020/12/16 09:17:17;;;;;;;27.08;16.42;;;7.50;84.60;;;;;;4990095;28;20038;-67
2020/12/16 09:19:45;;;;;;;27.85;16.17;;;7.50;84.60;;;;;;4989048;28;20054;-67
2020/12/16 09:22:11;;;;;;;28.33;16.08;;;7.60;84.70;;;;;;4992582;28;20037;-68
2020/12/16 09:24:37;;;;;;;30.20;16.55;;;7.60;84.70;;;;;;4990234;28;20034;-67
2020/12/16 09:27:09;;;;;;;28.65;17.15;;;7.60;84.70;;;;;;4986178;28;20563;-67
2020/12/16 09:29:42;;;;;;;31.90;17.40;;;7.70;84.70;;;;;;4986433;28;20058;-65
2020/12/16 09:32:10;;;;;;;34.17;18.13;;;7.80;84.70;;;;;;4984243;28;20026;-68
2020/12/16 09:34:39;;;;;;;30.77;17.45;;;7.80;85.30;;;;;;4993345;28;20030;-66
2020/12/16 09:37:11;;;;;;;34.53;19.10;;;7.80;84.50;;;;;;4984226;28;20061;-66
2020/12/16 09:39:37;;;;;;;33.05;18.70;;;7.90;84.20;;;;;;4985261;28;20030;-67
2020/12/16 09:42:12;;;;;;;30.52;18.58;;;7.90;84.10;;;;;;4991799;28;20027;-68
2020/12/16 09:44:37;;;;;;;;;;;7.90;83.90;;;;;;4989245;28;20031;-67
2020/12/16 09:47:20;;;;;;;34.25;18.00;;;7.90;84.10;;;;;;4984644;28;20308;-67
2020/12/16 09:50:03;;;;;;;30.88;18.60;;;7.90;84.00;;;;;;4990482;28;20026;-67
2020/12/16 09:52:37;;;;;;;33.05;17.50;;;7.90;83.90;;;;;;4986003;28;20391;-68
2020/12/16 09:55:21;;;;;;;28.42;17.00;;;7.80;83.80;;;;;;4980541;28;20054;-68
2020/12/16 09:58:17;;;;;;;30.65;16.92;;;7.80;83.80;;;;;;4975701;28;20054;-67
2020/12/16 10:00:43;;;;;;;29.75;17.23;;;7.80;84.10;;;;;;4973129;28;20038;-67
2020/12/16 10:03:11;;;;;;;28.80;16.95;;;7.80;84.00;;;;;;4987408;28;20037;-66
2020/12/16 10:05:38;;;;;;;28.33;17.05;;;7.80;84.10;;;;;;4986106;28;20054;-67
2020/12/16 10:08:11;;;;;;;29.15;17.17;;;7.80;84.30;;;;;;4981149;28;20085;-67
2020/12/16 10:10:40;;;;;;;30.65;17.55;;;7.80;84.60;;;;;;4976179;28;20053;-67
2020/12/16 10:13:06;;;;;;;37.60;16.92;;;7.80;84.60;;;;;;4987436;28;20034;-67
2020/12/16 10:15:31;;;;;;;32.67;16.63;;;7.80;84.60;;;;;;4982135;28;20133;-67
2020/12/16 10:17:58;;;;;;;38.75;16.65;;;7.80;84.30;;;;;;4983509;28;20026;-68
2020/12/16 10:20:24;;;;;;;49.05;17.10;;;7.80;84.10;;;;;;4987226;28;20442;-67
2020/12/16 10:22:50;;;;;;;32.17;16.73;;;7.80;84.30;;;;;;4982396;28;20580;-68
2020/12/16 10:25:16;;;;;;;36.63;16.25;;;7.80;84.50;;;;;;4983396;28;20085;-67
2020/12/16 10:27:41;;;;;;;29.20;15.73;;;7.80;85.50;;;;;;4986795;28;20038;-68
2020/12/16 10:30:07;;;;;;;27.40;15.30;;;7.80;84.80;;;;;;4982349;28;20341;-67
2020/12/16 10:32:35;;;;;;;27.17;15.65;;;7.80;84.90;;;;;;4986422;28;20034;-68
2020/12/16 10:35:01;;;;;;;28.52;15.43;;;7.80;84.80;;;;;;4983098;28;20510;-68
2020/12/16 10:37:27;;;;;;;28.92;15.77;;;7.90;84.60;;;;;;4975282;28;20117;-68
2020/12/16 10:40:11;;;;;;;29.23;16.73;;;7.90;84.60;;;;;;4961054;28;20050;-68
2020/12/16 10:42:36;;;;;;;29.45;17.08;;;8.00;84.60;;;;;;4980989;28;20442;-68
2020/12/16 10:45:04;;;;;;;31.77;16.98;;;8.00;84.50;;;;;;4987167;28;20026;-68
2020/12/16 10:47:29;;;;;;;31.90;18.23;;;8.00;84.50;;;;;;4983887;28;20105;-68
2020/12/16 10:49:55;;;;;;;31.42;18.45;;;8.10;84.50;;;;;;4981885;28;20505;-67
2020/12/16 10:52:20;;;;;;;32.42;19.73;;;8.10;84.50;;;;;;4986411;28;20089;-68
2020/12/16 10:54:46;;;;;;;30.35;19.08;;;8.10;84.60;;;;;;4982700;28;20034;-67
2020/12/16 10:57:12;;;;;;;31.73;18.10;;;8.10;84.60;;;;;;4985764;28;20146;-67
2020/12/16 10:59:37;;;;;;;32.55;18.52;;;8.10;84.50;;;;;;4984540;28;20038;-67
2020/12/16 11:02:03;;;;;;;32.63;18.98;;;8.20;84.50;;;;;;4983821;28;20045;-68
2020/12/16 11:04:30;;;;;;;30.08;17.40;;;8.20;84.50;;;;;;4985337;28;20125;-67
2020/12/16 11:06:55;;;;;;;31.92;19.13;;;8.20;84.50;;;;;;4979090;28;20031;-68
2020/12/16 11:09:21;;;;;;;31.58;18.88;;;8.20;84.30;;;;;;4982861;28;20046;-67
2020/12/16 11:11:49;;;;;;;37.80;18.92;;;8.20;84.40;;;;;;4980536;28;20065;-67
2020/12/16 11:14:18;;;;;;;34.63;19.45;;;8.20;84.50;;;;;;4981844;28;20037;-67
2020/12/16 11:16:44;;;;;;;36.63;18.70;;;8.20;84.30;;;;;;4979129;28;20113;-68
2020/12/16 11:19:12;;;;;;;34.55;19.05;;;8.20;84.20;;;;;;4987168;28;20038;-67
2020/12/16 11:21:46;;;;;;;36.17;18.17;;;8.20;84.30;;;;;;4988549;28;20533;-68
2020/12/16 11:24:14;;;;;;;33.70;17.30;;;8.20;84.30;;;;;;4980846;28;20038;-68
2020/12/16 11:26:42;;;;;;;38.72;17.35;;;8.20;84.40;;;;;;4984601;28;20117;-68
2020/12/16 11:29:08;;;;;;;30.67;17.42;;;8.20;84.50;;;;;;4986994;28;20058;-68
2020/12/16 11:31:42;;;;;;;72.30;16.02;;;8.20;84.50;;;;;;4987946;28;20409;-68
2020/12/16 11:34:08;;;;;;;27.33;15.93;;;8.10;84.40;;;;;;4988576;28;20031;-68
2020/12/16 11:36:42;;;;;;;23.20;14.98;;;8.20;84.60;;;;;;4982882;28;20046;-68
2020/12/16 11:39:08;;;;;;;30.08;17.58;;;8.20;84.90;;;;;;4986339;28;20038;-68
2020/12/16 11:41:35;;;;;;;28.63;16.77;;;8.10;84.90;;;;;;4990410;28;20039;-68
2020/12/16 11:44:01;;;;;;;22.98;15.15;;;8.20;84.90;;;;;;4990591;28;20527;-68
2020/12/16 11:46:28;;;;;;;24.38;15.82;;;8.20;85.00;;;;;;4991708;28;20038;-68
2020/12/16 11:48:54;;;;;;;37.90;17.27;;;8.30;85.00;;;;;;4981676;28;20041;-68
2020/12/16 11:51:20;;;;;;;67.20;17.73;;;8.30;85.00;;;;;;4992081;28;20042;-68
2020/12/16 11:53:45;;;;;;;30.02;16.77;;;8.30;85.60;;;;;;4991878;28;20038;-68
2020/12/16 11:56:11;;;;;;;27.73;16.27;;;8.30;84.60;;;;;;4989485;28;20039;-68
2020/12/16 11:58:38;;;;;;;29.17;16.67;;;8.30;84.90;;;;;;4977405;28;20263;-68
2020/12/16 12:01:03;;;;;;;34.42;17.23;;;8.30;85.10;;;;;;4989184;28;20023;-68
2020/12/16 12:03:29;;;;;;;50.03;17.98;;;8.30;85.20;;;;;;4982978;28;20031;-68
2020/12/16 12:05:54;;;;;;;39.47;17.83;;;8.40;85.30;;;;;;4991331;28;20077;-68
2020/12/16 12:08:20;;;;;;;54.47;17.52;;;8.40;85.20;;;;;;4992021;28;20045;-68
2020/12/16 12:10:46;;;;;;;36.30;17.13;;;8.40;85.30;;;;;;4988938;28;20405;-68
2020/12/16 12:13:11;;;;;;;33.85;16.77;;;8.50;85.30;;;;;;4991027;28;20100;-68
2020/12/16 12:15:37;;;;;;;29.92;16.33;;;8.50;85.20;;;;;;4992355;28;20038;-66
2020/12/16 12:18:02;;;;;;;33.33;16.08;;;8.60;85.20;;;;;;4992425;28;20034;-68
2020/12/16 12:20:28;;;;;;;42.78;16.40;;;8.60;85.10;;;;;;4988816;28;20500;-67
2020/12/16 12:22:54;;;;;;;34.80;16.98;;;8.60;84.90;;;;;;4987640;28;20031;-67
2020/12/16 12:25:19;;;;;;;47.40;16.20;;;8.70;84.80;;;;;;4984822;28;20038;-68
2020/12/16 12:27:45;;;;;;;71.75;16.30;;;8.70;84.80;;;;;;4992380;28;20089;-68
2020/12/16 12:30:10;;;;;;;68.57;16.95;;;8.70;84.60;;;;;;4991928;28;20033;-68
2020/12/16 12:32:38;;;;;;;59.78;16.23;;;8.70;84.50;;;;;;4991059;28;20038;-68
2020/12/16 12:35:04;;;;;;;25.58;14.30;;;8.70;84.30;;;;;;4992109;28;20042;-68
2020/12/16 12:37:30;;;;;;;57.78;15.80;;;8.70;84.50;;;;;;4991995;28;20417;-68
2020/12/16 12:39:55;;;;;;;44.47;15.85;;;8.70;84.70;;;;;;4989171;28;20030;-68
2020/12/16 12:42:21;;;;;;;32.85;15.25;;;8.70;84.70;;;;;;4987540;28;20082;-68
2020/12/16 12:44:46;;;;;;;43.33;14.90;;;8.70;84.60;;;;;;4986000;28;20453;-67